createdAt,value
2022-08-03T12:02:33.639Z,95163.00
2022-08-03T12:08:04.586Z,95138.00
2022-08-03T12:14:33.035Z,95139.00
2022-08-03T12:18:33.390Z,95142.00
2022-08-03T12:23:38.148Z,95135.00
2022-08-03T12:28:49.970Z,95131.00
2022-08-03T12:34:10.213Z,95122.00
2022-08-03T12:39:12.221Z,95118.00
2022-08-03T12:44:14.273Z,95128.00
2022-08-03T12:49:19.873Z,95114.00
2022-08-03T12:54:26.214Z,95126.00
2022-08-03T12:59:34.681Z,95113.00
2022-08-03T13:04:37.535Z,95117.00
2022-08-03T13:09:50.853Z,95109.00
2022-08-03T13:14:59.022Z,95115.00
2022-08-03T13:20:01.032Z,95106.00
2022-08-03T13:25:04.000Z,95120.00
2022-08-03T13:30:07.857Z,95104.00
2022-08-03T13:35:10.686Z,95107.00
2022-08-03T13:40:12.683Z,95102.00
2022-08-03T13:45:16.717Z,95098.00
2022-08-03T13:50:18.754Z,95099.00
2022-08-03T13:55:20.825Z,95095.00
2022-08-03T14:00:27.077Z,95098.00
2022-08-03T14:05:32.198Z,95091.00
2022-08-03T14:10:44.027Z,95082.00
2022-08-03T14:15:50.230Z,95085.00
2022-08-03T14:20:56.378Z,95082.00
2022-08-03T14:25:59.367Z,95083.00
2022-08-03T14:31:02.360Z,95070.00
2022-08-03T14:36:05.209Z,95082.00
2022-08-03T14:41:07.299Z,95070.00
2022-08-03T14:46:14.539Z,95081.00
2022-08-03T14:51:16.614Z,95072.00
2022-08-03T14:56:18.810Z,95072.00
2022-08-03T15:02:05.073Z,95065.00
2022-08-03T15:06:42.843Z,95071.00
2022-08-03T15:11:48.180Z,95063.00
2022-08-03T15:16:50.200Z,95044.00
2022-08-03T15:21:52.206Z,95057.00
2022-08-03T15:26:54.678Z,95046.00
2022-08-03T15:31:56.675Z,95047.00
2022-08-03T15:36:58.651Z,95055.00
2022-08-03T15:42:00.665Z,95037.00
2022-08-03T15:47:02.655Z,95049.00
2022-08-03T15:52:05.209Z,95047.00
2022-08-03T15:57:07.281Z,95049.00
2022-08-03T16:02:09.275Z,95043.00
2022-08-03T16:07:12.846Z,95044.00
2022-08-03T16:12:16.790Z,95046.00
2022-08-03T16:17:19.160Z,95045.00
2022-08-03T16:22:23.044Z,95039.00
2022-08-03T16:27:56.561Z,95029.00
2022-08-03T16:32:49.119Z,95031.00
2022-08-03T16:37:55.990Z,95034.00
2022-08-03T16:42:58.913Z,95047.00
2022-08-03T16:48:05.570Z,95033.00
2022-08-03T16:53:10.082Z,95041.00
2022-08-03T16:58:24.305Z,95040.00
2022-08-03T17:03:57.081Z,95034.00
2022-08-03T17:09:01.997Z,95032.00
2022-08-03T17:14:09.511Z,95030.00
2022-08-03T17:19:13.182Z,95027.00
2022-08-03T17:24:34.902Z,95043.00
2022-08-03T17:29:45.299Z,95051.00
2022-08-03T17:34:48.843Z,95044.00
2022-08-03T17:39:59.188Z,95042.00
2022-08-03T17:45:03.566Z,95043.00
2022-08-03T17:50:23.558Z,95034.00
2022-08-03T17:55:55.497Z,95045.00
2022-08-03T18:02:02.529Z,95043.00
2022-08-03T18:06:56.228Z,95059.00
2022-08-03T18:12:05.956Z,95049.00
2022-08-03T18:17:22.204Z,95057.00
2022-08-03T18:22:26.918Z,95048.00
2022-08-03T18:27:45.955Z,95048.00
2022-08-03T18:33:01.075Z,95050.00
2022-08-03T18:38:03.810Z,95048.00
2022-08-03T18:43:12.397Z,95045.00
2022-08-03T18:48:46.306Z,95058.00
2022-08-03T18:54:46.667Z,95055.00
2022-08-03T19:00:24.246Z,95062.00
2022-08-03T19:06:17.376Z,95062.00
2022-08-03T19:12:13.241Z,95069.00
2022-08-03T19:17:29.277Z,95045.00
2022-08-03T19:22:33.604Z,95064.00
2022-08-03T19:27:36.366Z,95062.00
2022-08-03T19:32:39.576Z,95068.00
2022-08-03T19:37:52.638Z,95073.00
2022-08-03T19:43:09.916Z,95068.00
2022-08-03T19:48:19.224Z,95064.00
2022-08-03T19:53:25.183Z,95059.00
2022-08-03T19:58:38.456Z,95059.00
2022-08-03T20:03:43.271Z,95052.00
2022-08-03T20:08:51.403Z,95053.00
2022-08-03T20:13:55.176Z,95066.00
2022-08-03T20:18:57.207Z,95064.00
2022-08-03T20:24:23.793Z,95064.00
